Time;durP1;ratioP1;P1;durP2;ratioP2;P2;SDS_P1;SDS_P2;PMS_P1;PMS_P2;Temp;Humidity;BMP_temperature;BMP_pressure;BME280_temperature;BME280_humidity;BME280_pressure;Samples;Min_cycle;Max_cycle;Signal;HPM_P1;HPM_P2
2022/03/18 10:41:25;;;;;;;3.17;0.80;;;12.10;96.00;;;;;;4973130;23;20275;-75
2022/03/18 10:43:53;;;;;;;5.23;1.00;;;11.90;96.30;;;;;;4956139;28;20208;-76
2022/03/18 10:46:21;;;;;;;2.40;0.93;;;12.00;96.40;;;;;;4956512;28;20227;-76
2022/03/18 10:49:04;;;;;;;2.57;1.33;;;12.20;96.30;;;;;;4956809;28;20211;-76
2022/03/18 10:51:31;;;;;;;2.53;1.20;;;12.20;96.40;;;;;;4956021;28;20210;-77
2022/03/18 10:54:00;;;;;;;3.20;0.80;;;12.40;95.90;;;;;;4956506;28;20654;-77
2022/03/18 10:56:29;;;;;;;2.43;1.00;;;12.30;96.10;;;;;;4956158;28;20728;-78
2022/03/18 10:58:55;;;;;;;1.70;0.90;;;12.20;96.60;;;;;;4956592;28;20204;-78
2022/03/18 11:01:24;;;;;;;5.40;1.70;;;12.10;96.50;;;;;;4955974;28;20242;-76
2022/03/18 11:03:52;;;;;;;4.37;1.23;;;12.10;96.60;;;;;;4955820;28;20204;-77
2022/03/18 11:06:19;;;;;;;2.47;0.90;;;12.20;96.50;;;;;;4955641;28;20284;-78
2022/03/18 11:08:47;;;;;;;3.60;2.00;;;12.30;95.80;;;;;;4955957;28;20661;-79
2022/03/18 11:11:18;;;;;;;1.93;0.60;;;12.40;96.00;;;;;;4956257;28;20315;-77
2022/03/18 11:13:56;;;;;;;2.10;1.00;;;12.50;95.60;;;;;;4955683;28;20208;-76
2022/03/18 11:16:27;;;;;;;2.13;0.97;;;12.50;95.20;;;;;;4956008;28;20232;-77
2022/03/18 11:18:54;;;;;;;1.10;0.60;;;12.40;95.60;;;;;;4953144;28;20821;-78
2022/03/18 11:21:21;;;;;;;1.10;0.80;;;12.50;95.20;;;;;;4948189;29;20244;-77
2022/03/18 11:23:50;;;;;;;2.37;0.80;;;12.60;95.40;;;;;;4955499;28;20204;-78
2022/03/18 11:26:19;;;;;;;2.93;0.60;;;12.70;94.70;;;;;;4955579;28;20214;-76
2022/03/18 11:28:46;;;;;;;3.27;0.87;;;12.70;95.00;;;;;;4955599;28;20306;-76
2022/03/18 11:31:18;;;;;;;1.60;0.90;;;12.80;94.90;;;;;;4955928;28;20215;-75
2022/03/18 11:34:08;;;;;;;1.90;0.80;;;12.80;95.30;;;;;;4955600;28;20607;-76
2022/03/18 11:36:36;;;;;;;3.17;0.93;;;13.00;95.20;;;;;;4955378;28;20328;-75
2022/03/18 11:39:09;;;;;;;2.40;0.90;;;13.10;94.70;;;;;;4955293;28;20291;-77
2022/03/18 11:41:57;;;;;;;3.03;0.90;;;13.10;95.10;;;;;;4955035;28;20240;-76
2022/03/18 11:44:59;;;;;;;0.97;0.70;;;13.10;94.40;;;;;;4955648;28;20303;-83
2022/03/18 11:47:45;;;;;;;4.40;0.73;;;13.00;94.40;;;;;;4950484;28;20227;-80
2022/03/18 11:50:47;;;;;;;1.80;0.70;;;13.10;93.80;;;;;;4954678;28;20287;-79
2022/03/18 11:53:51;;;;;;;2.73;0.60;;;13.10;93.80;;;;;;4954339;28;20250;-83
2022/03/18 11:56:20;;;;;;;1.50;0.63;;;13.10;93.90;;;;;;4951711;28;20239;-81
2022/03/18 11:58:47;;;;;;;1.63;0.63;;;13.10;94.00;;;;;;4954782;29;20663;-78
2022/03/18 12:01:40;;;;;;;1.20;0.50;;;13.20;93.90;;;;;;4955103;28;20317;-77
2022/03/18 12:04:09;;;;;;;1.13;0.70;;;13.30;93.50;;;;;;4954824;28;20295;-78
2022/03/18 12:07:10;;;;;;;2.57;0.63;;;13.40;93.30;;;;;;4954676;28;20240;-74
2022/03/18 12:09:59;;;;;;;4.20;1.60;;;13.40;92.40;;;;;;4954564;28;20212;-72
2022/03/18 12:12:29;;;;;;;3.60;0.83;;;13.30;93.20;;;;;;4948276;28;21394;-78
2022/03/18 12:14:57;;;;;;;2.17;1.03;;;13.40;93.30;;;;;;4954152;28;20207;-81
2022/03/18 12:17:25;;;;;;;1.47;0.70;;;13.50;92.70;;;;;;4952150;28;20247;-75
2022/03/18 12:19:55;;;;;;;1.83;0.90;;;13.70;93.10;;;;;;4941521;28;20652;-71
2022/03/18 12:22:23;;;;;;;2.33;0.67;;;13.80;92.60;;;;;;4947727;29;20697;-76
2022/03/18 12:24:52;;;;;;;1.47;0.80;;;13.70;92.50;;;;;;4947717;28;20212;-77
2022/03/18 12:27:21;;;;;;;3.40;1.13;;;13.70;92.90;;;;;;4944908;28;20311;-82
2022/03/18 12:29:48;;;;;;;0.93;0.50;;;13.70;93.20;;;;;;4940246;28;20204;-83
2022/03/18 12:32:15;;;;;;;1.27;0.60;;;13.80;92.40;;;;;;4952113;28;20218;-76
2022/03/18 12:34:50;;;;;;;1.13;0.50;;;13.90;92.50;;;;;;4953217;28;20218;-78
2022/03/18 12:37:22;;;;;;;0.90;0.47;;;14.00;91.50;;;;;;4952806;28;20266;-79
2022/03/18 12:40:02;;;;;;;1.57;0.80;;;14.00;91.30;;;;;;4952898;28;20249;-80
2022/03/18 12:42:29;;;;;;;1.80;0.70;;;13.90;91.30;;;;;;4953787;28;20319;-80
2022/03/18 12:44:59;;;;;;;1.73;0.80;;;13.70;91.10;;;;;;4953529;28;20223;-84
2022/03/18 12:47:30;;;;;;;1.60;0.63;;;13.70;91.60;;;;;;4952342;28;20296;-77
2022/03/18 12:49:57;;;;;;;1.27;0.60;;;13.90;90.40;;;;;;4953140;28;20215;-78
2022/03/18 12:52:25;;;;;;;1.57;0.93;;;13.90;90.50;;;;;;4953244;28;20212;-78
2022/03/18 12:55:13;;;;;;;1.97;1.00;;;14.00;91.20;;;;;;4951912;28;20207;-75
2022/03/18 12:57:42;;;;;;;1.90;0.97;;;14.00;92.00;;;;;;4949616;28;20288;-76
2022/03/18 13:00:11;;;;;;;3.27;1.00;;;14.10;93.10;;;;;;4953067;28;20223;-81
2022/03/18 13:02:41;;;;;;;1.90;0.83;;;14.30;93.50;;;;;;4952338;28;20246;-78
2022/03/18 13:05:10;;;;;;;3.67;1.10;;;14.40;92.50;;;;;;4951872;28;20239;-79
2022/03/18 13:07:39;;;;;;;5.27;0.80;;;14.50;92.30;;;;;;4953086;28;20267;-82
2022/03/18 13:10:07;;;;;;;1.50;0.83;;;14.50;92.70;;;;;;4951979;28;20204;-79
2022/03/18 13:12:36;;;;;;;1.80;0.80;;;14.60;92.30;;;;;;4952820;28;20689;-79
2022/03/18 13:15:15;;;;;;;3.27;0.90;;;14.60;92.30;;;;;;4953367;28;20211;-82
2022/03/18 13:17:44;;;;;;;1.37;0.70;;;14.70;92.00;;;;;;4952579;28;20235;-78
2022/03/18 13:20:25;;;;;;;1.67;0.90;;;14.80;92.00;;;;;;4953174;28;20242;-77
2022/03/18 13:22:54;;;;;;;3.07;0.80;;;14.70;91.50;;;;;;4953024;28;20770;-78
2022/03/18 13:25:21;;;;;;;4.30;0.97;;;14.70;91.20;;;;;;4953847;28;20204;-79
2022/03/18 13:27:48;;;;;;;1.70;0.80;;;14.50;91.10;;;;;;4955415;28;20703;-78
2022/03/18 13:33:04;;;;;;;3.80;0.73;;;14.40;91.60;;;;;;4953447;29;20224;-77
2022/03/18 13:35:30;;;;;;;2.03;0.70;;;14.40;91.50;;;;;;4957063;28;20204;-74
2022/03/18 13:38:06;;;;;;;1.03;0.60;;;14.70;90.80;;;;;;4957139;28;20220;-76
2022/03/18 13:40:34;;;;;;;1.87;0.83;;;14.50;90.60;;;;;;4957157;28;20213;-75
2022/03/18 13:43:04;;;;;;;2.10;1.00;;;14.30;90.80;;;;;;4956889;28;20334;-77
2022/03/18 13:45:32;;;;;;;2.23;0.60;;;14.30;90.90;;;;;;4954320;28;20214;-76
2022/03/18 13:47:59;;;;;;;3.20;0.90;;;14.50;89.90;;;;;;4956956;28;20228;-75
2022/03/18 13:50:26;;;;;;;2.13;1.17;;;14.70;88.70;;;;;;4957492;28;20303;-73
2022/03/18 13:52:54;;;;;;;2.97;1.07;;;14.70;87.30;;;;;;4957395;28;20219;-74
2022/03/18 13:55:33;;;;;;;1.73;0.70;;;14.60;87.10;;;;;;4956632;28;20208;-73
2022/03/18 13:58:04;;;;;;;3.37;1.17;;;14.50;86.80;;;;;;4956841;28;20227;-74
2022/03/18 14:00:34;;;;;;;1.73;0.70;;;14.60;87.80;;;;;;4957124;28;20737;-74
2022/03/18 14:03:03;;;;;;;5.77;0.73;;;14.70;87.50;;;;;;4956988;28;20737;-75
2022/03/18 14:05:32;;;;;;;4.90;1.47;;;14.70;87.90;;;;;;4957254;28;20244;-74
2022/03/18 14:08:00;;;;;;;4.10;0.80;;;14.70;87.00;;;;;;4957421;28;20232;-76
2022/03/18 14:10:40;;;;;;;4.63;0.67;;;14.60;86.20;;;;;;4957010;28;20212;-76
2022/03/18 14:13:08;;;;;;;1.30;0.80;;;14.50;85.80;;;;;;4957190;28;20207;-78
2022/03/18 14:15:37;;;;;;;1.20;0.70;;;14.60;86.20;;;;;;4957279;28;20208;-77
2022/03/18 14:18:06;;;;;;;4.20;1.30;;;14.60;85.50;;;;;;4956926;28;20250;-74
2022/03/18 14:20:34;;;;;;;3.00;0.80;;;14.50;86.10;;;;;;4957231;28;20212;-77
2022/03/18 14:23:16;;;;;;;2.80;0.80;;;14.60;87.50;;;;;;4957007;28;20326;-79
2022/03/18 14:25:46;;;;;;;2.00;0.80;;;14.80;87.30;;;;;;4956872;28;20215;-75
2022/03/18 14:28:18;;;;;;;3.43;0.60;;;14.80;87.30;;;;;;4956843;28;20228;-73
2022/03/18 14:30:45;;;;;;;2.57;1.00;;;14.80;87.50;;;;;;4955181;28;20236;-75
2022/03/18 14:33:12;;;;;;;2.67;0.80;;;14.80;86.70;;;;;;4956288;28;20307;-76
2022/03/18 14:35:39;;;;;;;1.37;0.70;;;15.00;87.60;;;;;;4955981;28;20416;-73
2022/03/18 14:38:07;;;;;;;2.90;0.73;;;15.20;87.60;;;;;;4955833;28;20224;-77
2022/03/18 14:40:35;;;;;;;1.20;0.90;;;15.10;85.60;;;;;;4955384;28;20271;-75
2022/03/18 14:43:04;;;;;;;1.57;0.90;;;15.00;87.50;;;;;;4955716;28;20236;-77
2022/03/18 14:45:32;;;;;;;2.30;0.70;;;15.00;86.80;;;;;;4954806;28;20216;-76
2022/03/18 14:47:59;;;;;;;2.20;0.80;;;15.00;85.50;;;;;;4953832;28;20279;-74
2022/03/18 14:50:26;;;;;;;1.27;0.70;;;14.90;85.30;;;;;;4955828;28;20204;-74
2022/03/18 14:52:53;;;;;;;3.10;0.60;;;14.80;86.20;;;;;;4956040;28;20267;-76
2022/03/18 14:58:06;;;;;;;2.00;0.63;;;14.90;85.70;;;;;;4955979;28;20223;-76
2022/03/18 15:00:34;;;;;;;1.20;0.60;;;14.90;85.60;;;;;;4956042;28;20667;-75
2022/03/18 15:03:01;;;;;;;1.37;0.73;;;14.90;84.60;;;;;;4955035;28;20232;-79
2022/03/18 15:05:28;;;;;;;1.17;0.50;;;15.00;85.70;;;;;;4955686;28;20628;-76
2022/03/18 15:07:55;;;;;;;3.03;1.00;;;15.00;86.20;;;;;;4956045;28;20314;-75
2022/03/18 15:10:23;;;;;;;1.53;0.77;;;14.90;86.90;;;;;;4955983;28;20615;-74
2022/03/18 15:12:50;;;;;;;4.53;0.80;;;14.80;88.50;;;;;;4954462;28;20270;-75
2022/03/18 15:15:18;;;;;;;2.73;0.67;;;14.80;89.20;;;;;;4955762;28;20262;-75
2022/03/18 15:17:45;;;;;;;2.07;0.80;;;14.90;89.10;;;;;;4955472;28;20268;-74
2022/03/18 15:20:12;;;;;;;2.07;0.50;;;15.00;86.40;;;;;;4955753;28;20208;-75
2022/03/18 15:22:39;;;;;;;1.53;0.70;;;15.00;86.20;;;;;;4955913;28;20232;-77
2022/03/18 15:25:07;;;;;;;1.53;0.80;;;14.90;86.10;;;;;;4956060;28;20211;-76
2022/03/18 15:27:34;;;;;;;1.07;0.50;;;14.80;85.80;;;;;;4955136;28;20234;-74
2022/03/18 15:30:02;;;;;;;1.63;0.83;;;14.80;85.60;;;;;;4955719;28;20212;-77
2022/03/18 15:32:31;;;;;;;2.97;0.77;;;14.80;85.80;;;;;;4955150;28;20211;-78
2022/03/18 15:34:58;;;;;;;1.67;0.60;;;14.70;83.70;;;;;;4953127;28;20211;-74
2022/03/18 15:37:25;;;;;;;1.83;0.70;;;14.70;83.90;;;;;;4954132;28;20224;-74
2022/03/18 15:39:54;;;;;;;2.20;0.77;;;14.60;84.70;;;;;;4954587;28;20208;-73
2022/03/18 15:42:22;;;;;;;1.63;0.80;;;14.60;84.30;;;;;;4955109;28;20271;-75
2022/03/18 15:44:49;;;;;;;2.20;0.60;;;14.60;84.40;;;;;;4954967;28;20714;-74
2022/03/18 15:47:17;;;;;;;1.40;0.73;;;14.60;84.20;;;;;;4953984;28;20224;-74
2022/03/18 15:49:47;;;;;;;1.47;0.80;;;14.60;84.00;;;;;;4954394;28;20211;-75
2022/03/18 15:52:14;;;;;;;1.40;0.80;;;14.50;85.00;;;;;;4955215;28;20294;-76
2022/03/18 15:54:42;;;;;;;2.07;0.90;;;14.40;84.50;;;;;;4954712;28;20206;-77
2022/03/18 15:57:12;;;;;;;1.60;0.80;;;14.40;85.20;;;;;;4954618;28;20230;-74
2022/03/18 15:59:39;;;;;;;3.07;1.07;;;14.40;85.10;;;;;;4954249;28;20730;-75
2022/03/18 16:02:06;;;;;;;2.83;0.67;;;14.40;85.10;;;;;;4954768;28;20204;-75
2022/03/18 16:04:32;;;;;;;3.13;0.80;;;14.40;84.60;;;;;;4953991;28;20204;-75
2022/03/18 16:07:01;;;;;;;3.83;0.60;;;14.40;86.20;;;;;;4954736;28;20224;-74
2022/03/18 16:09:33;;;;;;;2.67;1.10;;;14.30;85.60;;;;;;4954934;28;20219;-74
2022/03/18 16:12:01;;;;;;;4.20;0.70;;;14.40;85.80;;;;;;4955072;29;20559;-74
2022/03/18 16:14:29;;;;;;;0.93;0.50;;;14.40;85.70;;;;;;4954841;28;20212;-76
2022/03/18 16:16:56;;;;;;;1.20;0.70;;;14.30;84.00;;;;;;4954982;28;20224;-74
2022/03/18 16:19:23;;;;;;;1.07;0.60;;;14.20;83.60;;;;;;4954298;28;20285;-75
2022/03/18 16:21:50;;;;;;;2.23;0.80;;;14.20;84.50;;;;;;4954906;28;20204;-74
2022/03/18 16:24:18;;;;;;;1.03;0.53;;;14.30;85.20;;;;;;4954741;28;20298;-75
2022/03/18 16:26:55;;;;;;;2.40;0.60;;;14.30;84.90;;;;;;4954173;28;20275;-75
2022/03/18 16:29:22;;;;;;;3.17;0.90;;;14.30;85.60;;;;;;4953561;28;20200;-75
2022/03/18 16:31:50;;;;;;;1.03;0.77;;;14.20;87.00;;;;;;4954799;28;20207;-76
2022/03/18 16:34:19;;;;;;;1.37;0.53;;;14.20;86.90;;;;;;4954791;28;20230;-75
2022/03/18 16:36:46;;;;;;;2.10;0.63;;;14.20;87.30;;;;;;4954281;28;20231;-76
2022/03/18 16:41:45;;;;;;;3.00;1.07;;;14.20;87.60;;;;;;4972320;28;20211;-72
2022/03/18 16:44:12;;;;;;;1.27;0.67;;;14.20;87.90;;;;;;4973854;28;20241;-72
2022/03/18 16:49:28;;;;;;;2.50;1.07;;;14.00;88.30;;;;;;4973451;28;20277;-72
2022/03/18 16:51:56;;;;;;;5.27;0.90;;;13.90;88.80;;;;;;4973555;28;20207;-72
2022/03/18 16:54:25;;;;;;;2.40;0.87;;;13.90;89.60;;;;;;4973354;28;20239;-72
2022/03/18 16:56:54;;;;;;;2.30;0.83;;;13.90;89.40;;;;;;4958281;28;20228;-71
2022/03/18 16:59:21;;;;;;;1.63;1.07;;;13.80;89.20;;;;;;4954553;28;20686;-73
2022/03/18 17:01:50;;;;;;;2.97;1.00;;;13.70;89.80;;;;;;4954813;28;20212;-72
2022/03/18 17:04:18;;;;;;;2.67;0.80;;;13.70;89.90;;;;;;4958187;28;20243;-73
2022/03/18 17:06:44;;;;;;;2.53;1.10;;;13.70;90.10;;;;;;4958070;28;20714;-73
2022/03/18 17:09:13;;;;;;;2.23;1.10;;;13.60;90.10;;;;;;4958130;28;20208;-73
2022/03/18 17:11:40;;;;;;;2.17;1.07;;;13.50;90.30;;;;;;4957842;28;20215;-73
2022/03/18 17:14:09;;;;;;;1.70;0.80;;;13.50;90.40;;;;;;4958302;28;20219;-73
2022/03/18 17:16:37;;;;;;;3.70;1.50;;;13.40;90.50;;;;;;4958119;28;20339;-73
2022/03/18 17:19:04;;;;;;;2.33;0.80;;;13.40;90.40;;;;;;4957675;28;20303;-72
2022/03/18 17:21:31;;;;;;;4.47;1.20;;;13.50;90.20;;;;;;4957711;28;20298;-72
2022/03/18 17:23:58;;;;;;;3.40;1.50;;;13.40;90.10;;;;;;4957686;28;20733;-72
2022/03/18 17:26:25;;;;;;;5.23;0.83;;;13.40;89.90;;;;;;4957488;28;20726;-72
2022/03/18 17:28:52;;;;;;;2.37;0.97;;;13.30;89.20;;;;;;4959230;28;20204;-73
2022/03/18 17:31:21;;;;;;;1.60;0.67;;;13.20;89.40;;;;;;4976902;28;20207;-73
2022/03/18 17:33:48;;;;;;;3.20;1.10;;;13.10;89.50;;;;;;4976863;28;20226;-73
2022/03/18 17:36:18;;;;;;;1.97;0.93;;;13.10;89.70;;;;;;4976764;28;20736;-73
2022/03/18 17:38:46;;;;;;;2.90;0.80;;;13.10;90.00;;;;;;4977138;28;20211;-73
2022/03/18 17:41:13;;;;;;;5.07;0.80;;;13.00;90.10;;;;;;4976847;28;20217;-72
2022/03/18 17:43:40;;;;;;;3.03;0.70;;;13.00;90.00;;;;;;4976399;28;20235;-73
2022/03/18 17:46:10;;;;;;;2.93;0.80;;;12.90;90.00;;;;;;4976724;28;20294;-73
2022/03/18 17:48:39;;;;;;;3.83;1.10;;;12.90;90.30;;;;;;4973446;28;20221;-72
2022/03/18 17:51:06;;;;;;;2.03;1.00;;;12.90;90.20;;;;;;4958801;28;20200;-73
2022/03/18 17:53:33;;;;;;;2.33;1.17;;;12.90;90.40;;;;;;4972882;28;20207;-73
2022/03/18 17:56:00;;;;;;;4.67;1.17;;;12.80;90.40;;;;;;4975530;28;20214;-72
2022/03/18 17:58:28;;;;;;;5.67;2.17;;;12.70;90.80;;;;;;4975924;28;20234;-72
2022/03/18 18:00:55;;;;;;;3.57;1.83;;;12.70;91.00;;;;;;4971357;28;20211;-73
2022/03/18 18:03:22;;;;;;;3.17;1.03;;;12.60;91.20;;;;;;4976192;28;20238;-73
2022/03/18 18:05:50;;;;;;;2.47;1.10;;;12.60;91.60;;;;;;4976708;28;20207;-73
2022/03/18 18:08:18;;;;;;;2.83;0.90;;;12.40;91.90;;;;;;4976131;28;20673;-73
2022/03/18 18:10:45;;;;;;;2.97;0.87;;;12.40;92.30;;;;;;4966879;28;20729;-74
2022/03/18 18:13:12;;;;;;;1.67;0.90;;;12.40;92.50;;;;;;4975170;28;20274;-78
2022/03/18 18:15:39;;;;;;;1.90;0.90;;;12.40;92.70;;;;;;4974922;28;20294;-72
2022/03/18 18:18:05;;;;;;;2.00;0.80;;;12.40;93.00;;;;;;4973778;28;20223;-74
2022/03/18 18:23:18;;;;;;;4.50;1.13;;;12.10;93.80;;;;;;4971844;28;20708;-73
2022/03/18 18:25:45;;;;;;;2.73;1.10;;;12.00;94.10;;;;;;4974101;28;20199;-73
2022/03/18 18:28:13;;;;;;;2.30;0.90;;;12.00;94.40;;;;;;4975493;28;20234;-73
2022/03/18 18:30:40;;;;;;;2.70;1.10;;;11.90;94.70;;;;;;4975849;28;20217;-74
2022/03/18 18:33:07;;;;;;;3.47;1.00;;;12.00;94.80;;;;;;4975357;28;20206;-71
2022/03/18 18:35:35;;;;;;;2.47;1.13;;;12.00;95.00;;;;;;4974722;28;20299;-74
2022/03/18 18:38:02;;;;;;;3.73;1.10;;;11.90;95.30;;;;;;4969182;28;20230;-78
2022/03/18 18:40:31;;;;;;;3.10;1.07;;;11.90;95.40;;;;;;4975324;28;20223;-72
2022/03/18 18:43:06;;;;;;;2.87;1.50;;;12.00;95.50;;;;;;4975463;28;20629;-72
2022/03/18 18:45:35;;;;;;;3.47;1.33;;;11.90;95.80;;;;;;4975076;28;20211;-72
2022/03/18 18:48:02;;;;;;;3.80;1.40;;;11.70;96.10;;;;;;4974856;28;20231;-72
2022/03/18 18:50:29;;;;;;;3.97;1.60;;;11.70;96.30;;;;;;4969857;28;20611;-76
2022/03/18 18:52:57;;;;;;;4.33;1.70;;;11.80;96.40;;;;;;4967704;28;20207;-73
2022/03/18 18:55:24;;;;;;;1.77;1.00;;;11.70;96.60;;;;;;4975290;28;20294;-73
2022/03/18 18:57:53;;;;;;;3.00;1.30;;;11.60;96.90;;;;;;4965053;28;20275;-73
2022/03/18 19:00:20;;;;;;;6.63;1.17;;;11.60;97.10;;;;;;4963635;28;20205;-73
2022/03/18 19:02:49;;;;;;;2.73;1.10;;;11.60;97.20;;;;;;4955446;28;20212;-76
2022/03/18 19:05:18;;;;;;;3.97;1.07;;;11.60;97.40;;;;;;4973734;28;20235;-73
2022/03/18 19:07:46;;;;;;;3.43;0.97;;;11.60;97.40;;;;;;4973713;28;20266;-74
2022/03/18 19:10:14;;;;;;;2.13;1.30;;;11.60;97.60;;;;;;4966104;28;20208;-73
2022/03/18 19:12:41;;;;;;;1.83;1.17;;;11.60;97.80;;;;;;4955223;28;20291;-73
2022/03/18 19:15:10;;;;;;;2.33;1.30;;;11.50;97.90;;;;;;4965942;28;20199;-72
2022/03/18 19:17:38;;;;;;;3.23;1.50;;;11.40;98.10;;;;;;4968887;28;20227;-73
2022/03/18 19:20:06;;;;;;;2.67;1.40;;;11.30;98.40;;;;;;4974122;28;20696;-74
2022/03/18 19:22:34;;;;;;;2.30;1.23;;;11.30;98.60;;;;;;4974540;28;20286;-74
2022/03/18 19:25:00;;;;;;;2.80;1.70;;;11.30;98.60;;;;;;4974183;28;20234;-73
2022/03/18 19:27:27;;;;;;;1.90;1.30;;;11.30;98.80;;;;;;4974349;28;20249;-73
2022/03/18 19:29:54;;;;;;;2.67;1.57;;;11.20;99.00;;;;;;4974377;28;20203;-73
2022/03/18 19:32:29;;;;;;;4.33;1.70;;;11.20;99.10;;;;;;4963385;28;20690;-73
2022/03/18 19:34:56;;;;;;;2.10;1.40;;;11.20;99.30;;;;;;4974291;28;20208;-76
2022/03/18 19:37:23;;;;;;;3.20;1.27;;;11.10;99.40;;;;;;4974113;28;20606;-73
2022/03/18 19:39:50;;;;;;;2.67;1.40;;;11.10;99.60;;;;;;4974004;28;20214;-74
2022/03/18 19:42:17;;;;;;;3.03;1.50;;;11.10;99.60;;;;;;4973790;28;20696;-74
2022/03/18 19:44:44;;;;;;;3.83;1.63;;;11.10;99.80;;;;;;4973938;28;20710;-73
2022/03/18 19:47:13;;;;;;;3.00;1.47;;;11.10;99.90;;;;;;4973810;28;20419;-73
2022/03/18 19:49:41;;;;;;;2.03;1.20;;;10.90;99.90;;;;;;4974081;28;20728;-74
2022/03/18 19:52:09;;;;;;;4.90;1.80;;;10.90;99.90;;;;;;4970234;28;20596;-72
2022/03/18 19:54:36;;;;;;;3.97;1.67;;;10.90;99.90;;;;;;4954831;28;20216;-73
2022/03/18 20:02:31;;;;;;;3.57;1.47;;;10.90;99.90;;;;;;4965011;28;20310;-73
2022/03/18 20:04:59;;;;;;;2.77;1.50;;;10.80;99.90;;;;;;4973707;28;20246;-72
2022/03/18 20:07:26;;;;;;;4.43;1.43;;;10.70;99.90;;;;;;4973412;28;20721;-73
2022/03/18 20:09:53;;;;;;;2.57;1.40;;;10.70;99.90;;;;;;4971316;28;20217;-73
2022/03/18 20:12:20;;;;;;;2.33;1.33;;;10.70;99.90;;;;;;4973420;28;20211;-73
2022/03/18 20:14:47;;;;;;;3.90;1.23;;;10.70;99.90;;;;;;4973797;28;20211;-73
2022/03/18 20:17:15;;;;;;;2.17;1.30;;;10.70;99.90;;;;;;4973489;28;20231;-75
2022/03/18 20:19:42;;;;;;;3.77;1.63;;;10.70;99.90;;;;;;4973348;28;20211;-73
2022/03/18 20:22:11;;;;;;;5.73;2.67;;;10.70;99.90;;;;;;4973995;28;20207;-73
2022/03/18 20:24:38;;;;;;;3.73;1.33;;;10.60;99.90;;;;;;4973549;28;20245;-72
2022/03/18 20:27:05;;;;;;;3.77;1.50;;;10.60;99.90;;;;;;4973714;28;20303;-73
2022/03/18 20:29:32;;;;;;;1.53;1.20;;;10.60;99.90;;;;;;4973745;28;20203;-74
2022/03/18 20:31:59;;;;;;;2.53;1.30;;;10.50;99.90;;;;;;4961405;28;20207;-73
2022/03/18 20:34:26;;;;;;;2.50;1.37;;;10.50;99.90;;;;;;4954563;28;20215;-73
2022/03/18 20:36:54;;;;;;;4.07;1.67;;;10.50;99.90;;;;;;4953413;28;20595;-74
2022/03/18 20:39:22;;;;;;;6.20;2.47;;;10.50;99.90;;;;;;4954065;28;20207;-74
2022/03/18 20:41:51;;;;;;;4.07;2.10;;;10.60;99.90;;;;;;4954027;28;20214;-73
2022/03/18 20:44:18;;;;;;;3.60;1.50;;;10.50;99.90;;;;;;4954001;28;20968;-73
2022/03/18 20:46:46;;;;;;;4.03;1.60;;;10.30;99.90;;;;;;4964696;28;20871;-73
2022/03/18 20:49:13;;;;;;;2.57;1.33;;;10.30;99.90;;;;;;4973209;28;20209;-73
2022/03/18 20:51:40;;;;;;;3.83;1.67;;;10.30;99.90;;;;;;4972317;28;20203;-74
2022/03/18 20:54:08;;;;;;;3.00;1.73;;;10.40;99.90;;;;;;4954127;28;20230;-73
2022/03/18 20:56:37;;;;;;;3.67;1.80;;;10.30;99.90;;;;;;4964891;28;20772;-73
2022/03/18 20:59:04;;;;;;;4.60;1.63;;;10.20;99.90;;;;;;4973666;28;20207;-73
2022/03/18 21:01:34;;;;;;;3.47;1.80;;;10.30;99.90;;;;;;4969497;28;20204;-73
2022/03/18 21:04:01;;;;;;;4.00;1.90;;;10.30;99.90;;;;;;4953856;28;20298;-73
2022/03/18 21:06:28;;;;;;;3.80;1.57;;;10.20;99.90;;;;;;4953753;28;20230;-73
2022/03/18 21:08:55;;;;;;;3.30;1.77;;;10.20;99.90;;;;;;4966145;28;20217;-74
2022/03/18 21:11:21;;;;;;;5.13;1.80;;;10.20;99.90;;;;;;4973268;28;20203;-74
2022/03/18 21:13:55;;;;;;;2.83;1.60;;;10.10;99.90;;;;;;4973411;28;20217;-74
2022/03/18 21:16:23;;;;;;;6.70;1.60;;;10.10;99.90;;;;;;4973289;28;20290;-74
2022/03/18 21:18:49;;;;;;;4.97;1.73;;;10.10;99.90;;;;;;4969072;28;20200;-73
2022/03/18 21:21:17;;;;;;;3.50;1.50;;;10.20;99.90;;;;;;4954228;28;20219;-74
2022/03/18 21:23:45;;;;;;;4.23;1.57;;;10.10;99.90;;;;;;4954127;28;20216;-74
2022/03/18 21:31:44;;;;;;;3.37;2.10;;;10.10;99.90;;;;;;4954049;28;20290;-73
2022/03/18 21:34:11;;;;;;;2.13;1.47;;;10.10;99.90;;;;;;4953696;28;20212;-74
2022/03/18 21:36:39;;;;;;;4.13;2.13;;;10.10;99.90;;;;;;4953663;28;20231;-73
2022/03/18 21:39:06;;;;;;;5.13;1.40;;;10.10;99.90;;;;;;4953631;28;20208;-74
2022/03/18 21:41:33;;;;;;;2.20;1.50;;;10.10;99.90;;;;;;4953397;28;20643;-74
2022/03/18 21:44:01;;;;;;;3.13;1.47;;;10.00;99.90;;;;;;4953862;28;20683;-73
2022/03/18 21:46:29;;;;;;;3.63;1.80;;;10.00;99.90;;;;;;4972766;28;20253;-74
2022/03/18 21:48:57;;;;;;;5.20;2.00;;;10.10;99.90;;;;;;4974687;28;20203;-76
2022/03/18 21:51:25;;;;;;;5.60;1.70;;;10.00;99.90;;;;;;4976534;28;20290;-74
2022/03/18 21:53:52;;;;;;;2.70;1.80;;;10.10;99.90;;;;;;4972107;28;20215;-74
2022/03/18 21:56:19;;;;;;;4.37;1.50;;;10.00;99.90;;;;;;4956434;28;20582;-75
2022/03/18 21:58:45;;;;;;;3.03;1.37;;;10.00;99.90;;;;;;4957022;28;20243;-76
2022/03/18 22:01:15;;;;;;;4.87;1.90;;;10.00;99.90;;;;;;4956658;28;20208;-73
2022/03/18 22:03:42;;;;;;;2.80;1.40;;;10.00;99.90;;;;;;4956610;28;20259;-75
2022/03/18 22:06:09;;;;;;;4.40;1.93;;;10.00;99.90;;;;;;4956793;28;20246;-75
2022/03/18 22:08:35;;;;;;;3.67;1.90;;;10.00;99.90;;;;;;4973261;28;20203;-74
2022/03/18 22:11:02;;;;;;;2.97;1.73;;;10.00;99.90;;;;;;4975849;28;20207;-73
2022/03/18 22:13:29;;;;;;;2.87;1.50;;;9.90;99.90;;;;;;4968078;28;20207;-74
2022/03/18 22:15:56;;;;;;;3.67;1.63;;;9.90;99.90;;;;;;4975952;28;20222;-74
2022/03/18 22:18:24;;;;;;;4.50;1.80;;;9.90;99.90;;;;;;4975928;28;20228;-73
2022/03/18 22:20:50;;;;;;;5.10;1.63;;;9.80;99.90;;;;;;4975957;28;20215;-74
2022/03/18 22:23:17;;;;;;;4.10;1.67;;;9.80;99.90;;;;;;4974229;28;20195;-74
2022/03/18 22:25:44;;;;;;;3.27;1.80;;;9.70;99.90;;;;;;4966394;28;20682;-75
2022/03/18 22:28:11;;;;;;;2.43;1.70;;;9.70;99.90;;;;;;4964804;28;20243;-73
2022/03/18 22:30:37;;;;;;;2.97;1.80;;;9.70;99.90;;;;;;4958956;28;20607;-76
2022/03/18 22:33:05;;;;;;;2.83;1.60;;;9.70;99.90;;;;;;4975303;28;20214;-76
2022/03/18 22:35:33;;;;;;;6.80;1.83;;;9.70;99.90;;;;;;4973732;28;20199;-75
2022/03/18 22:38:00;;;;;;;2.80;1.70;;;9.60;99.90;;;;;;4974910;28;20702;-75
2022/03/18 22:40:27;;;;;;;3.30;1.80;;;9.60;99.90;;;;;;4974701;28;20310;-75
2022/03/18 22:42:54;;;;;;;4.37;2.00;;;9.60;99.90;;;;;;4975146;28;20680;-75
2022/03/18 22:45:21;;;;;;;5.30;1.60;;;9.60;99.90;;;;;;4975274;28;20737;-75
2022/03/18 22:47:48;;;;;;;2.53;1.70;;;9.50;99.90;;;;;;4974923;28;20584;-75
2022/03/18 22:50:15;;;;;;;4.37;2.03;;;9.50;99.90;;;;;;4976000;28;20235;-75
2022/03/18 22:52:44;;;;;;;4.57;2.00;;;9.40;99.90;;;;;;4967106;28;20200;-75
2022/03/18 22:55:12;;;;;;;3.43;1.70;;;9.40;99.90;;;;;;4956117;28;20738;-75
2022/03/18 22:57:40;;;;;;;4.63;2.10;;;9.50;99.90;;;;;;4956121;28;20232;-75
2022/03/18 23:00:09;;;;;;;3.93;1.70;;;9.40;99.90;;;;;;4955693;28;20590;-75
2022/03/18 23:02:36;;;;;;;3.00;1.90;;;9.40;99.90;;;;;;4956153;28;20208;-76
2022/03/18 23:05:04;;;;;;;3.70;1.90;;;9.40;99.90;;;;;;4969269;28;20223;-76
2022/03/18 23:07:32;;;;;;;5.40;1.90;;;9.40;99.90;;;;;;4969227;28;20239;-75
2022/03/18 23:10:00;;;;;;;5.70;1.63;;;9.40;99.90;;;;;;4955921;28;20208;-76
2022/03/18 23:12:26;;;;;;;4.13;1.63;;;9.30;99.90;;;;;;4956001;28;20211;-75
2022/03/18 23:14:53;;;;;;;4.77;1.90;;;9.30;99.90;;;;;;4955883;28;20208;-75
2022/03/18 23:17:22;;;;;;;4.60;1.60;;;9.20;99.90;;;;;;4955910;28;20232;-75
2022/03/18 23:19:49;;;;;;;7.10;1.90;;;9.20;99.90;;;;;;4955844;28;20571;-75
2022/03/18 23:22:16;;;;;;;4.17;1.90;;;9.20;99.90;;;;;;4956151;28;20207;-75
2022/03/18 23:24:45;;;;;;;5.10;1.70;;;9.20;99.90;;;;;;4955866;28;20235;-75
2022/03/18 23:27:15;;;;;;;4.00;2.07;;;9.20;99.90;;;;;;4955525;28;20703;-74
2022/03/18 23:29:42;;;;;;;3.50;2.07;;;9.20;99.90;;;;;;4955693;28;20315;-75
2022/03/18 23:32:09;;;;;;;4.83;1.90;;;9.20;99.90;;;;;;4955814;28;20200;-74
2022/03/18 23:34:36;;;;;;;3.23;1.70;;;9.20;99.90;;;;;;4955472;28;20234;-75
2022/03/18 23:37:03;;;;;;;5.77;2.03;;;9.20;99.90;;;;;;4955782;28;20242;-75
2022/03/18 23:39:29;;;;;;;3.40;2.20;;;9.10;99.90;;;;;;4955137;28;20208;-75
2022/03/18 23:41:56;;;;;;;4.50;2.00;;;9.10;99.90;;;;;;4955167;28;20212;-74
2022/03/18 23:44:25;;;;;;;7.43;2.40;;;9.10;99.90;;;;;;4955453;28;20218;-76
2022/03/18 23:46:51;;;;;;;3.97;2.00;;;9.10;99.90;;;;;;4955229;28;20247;-75
2022/03/18 23:49:18;;;;;;;3.60;1.90;;;9.00;99.90;;;;;;4955685;28;20200;-75
2022/03/18 23:51:45;;;;;;;5.47;2.00;;;9.00;99.90;;;;;;4955277;28;20207;-75
2022/03/18 23:54:12;;;;;;;5.63;2.00;;;9.00;99.90;;;;;;4955678;28;20215;-75
2022/03/18 23:56:39;;;;;;;5.67;2.40;;;8.90;99.90;;;;;;4955345;28;20228;-75
2022/03/18 23:59:06;;;;;;;4.40;2.33;;;8.90;99.90;;;;;;4955295;28;20208;-75
